Time;durP1;ratioP1;P1;durP2;ratioP2;P2;SDS_P1;SDS_P2;PMS_P1;PMS_P2;Temp;Humidity;BMP_temperature;BMP_pressure;BME280_temperature;BME280_humidity;BME280_pressure;Samples;Min_cycle;Max_cycle;Signal;HPM_P1;HPM_P2
2023/10/22 00:00:53;;;;;;;;;1.00;1.00;;;;;18.78;100.00;99560.13;2061820;28;45054;-58
2023/10/22 00:01:54;;;;;;;;;4.67;3.00;;;;;18.76;100.00;99562.91;2054663;28;46741;-58
2023/10/22 00:02:54;;;;;;;;;4.00;2.00;;;;;18.74;100.00;99559.50;2053555;28;46236;-58
2023/10/22 00:03:54;;;;;;;;;2.33;1.33;;;;;18.79;100.00;99565.38;2061697;28;46401;-57
2023/10/22 00:04:55;;;;;;;;;3.00;2.00;;;;;18.81;100.00;99567.97;2062299;28;46389;-57
2023/10/22 00:05:55;;;;;;;;;3.00;1.00;;;;;18.81;100.00;99567.97;2061711;28;46670;-58
2023/10/22 00:06:55;;;;;;;;;2.33;2.00;;;;;18.81;100.00;99570.66;2062009;28;46647;-58
2023/10/22 00:07:56;;;;;;;;;0.00;0.00;;;;;18.84;100.00;99569.56;2062178;28;46473;-57
2023/10/22 00:08:56;;;;;;;;;3.00;2.00;;;;;18.81;100.00;99576.91;2070294;28;46491;-59
2023/10/22 00:09:56;;;;;;;;;2.67;2.33;;;;;18.82;100.00;99572.38;2060049;28;46745;-58
2023/10/22 00:10:57;;;;;;;;;1.00;0.00;;;;;18.83;100.00;99582.16;2055575;28;46425;-59
2023/10/22 00:11:57;;;;;;;;;5.00;4.00;;;;;18.82;100.00;99583.13;2061445;28;46368;-60
2023/10/22 00:12:58;;;;;;;;;1.33;1.33;;;;;18.98;100.00;99581.00;2061332;28;46846;-61
2023/10/22 00:13:58;;;;;;;;;2.00;1.00;;;;;19.00;100.00;99575.53;2062061;28;46112;-59
2023/10/22 00:14:58;;;;;;;;;1.00;1.00;;;;;19.06;100.00;99577.78;2062375;28;46558;-59
2023/10/22 00:15:59;;;;;;;;;3.00;1.00;;;;;19.08;100.00;99578.50;2062455;28;45183;-59
2023/10/22 00:17:00;;;;;;;;;3.67;3.00;;;;;18.92;100.00;99584.16;2063515;28;46313;-59
2023/10/22 00:18:00;;;;;;;;;2.67;1.33;;;;;19.03;100.00;99584.22;2062516;28;46925;-57
2023/10/22 00:19:01;;;;;;;;;3.67;2.67;;;;;19.13;100.00;99586.22;2063133;28;46394;-58
2023/10/22 00:20:01;;;;;;;;;2.00;2.00;;;;;19.09;100.00;99583.75;2061582;28;46884;-55
2023/10/22 00:21:06;;;;;;;;;1.00;1.00;;;;;19.16;100.00;99583.28;2066825;28;46412;-59
2023/10/22 00:22:08;;;;;;;;;1.25;1.25;;;;;19.15;100.00;99585.13;2063978;28;45706;-59
2023/10/22 00:23:09;;;;;;;;;2.75;2.75;;;;;19.10;100.00;99587.31;2056210;28;47028;-60
2023/10/22 00:24:09;;;;;;;;;2.00;1.67;;;;;19.19;100.00;99597.38;2056120;28;46284;-60
2023/10/22 00:25:10;;;;;;;;;3.00;1.67;;;;;19.18;100.00;99592.94;2063300;28;46433;-59
2023/10/22 00:26:14;;;;;;;;;1.00;0.00;;;;;19.21;100.00;99597.28;2095979;28;46155;-58
2023/10/22 00:27:14;;;;;;;;;2.50;1.25;;;;;19.21;100.00;99594.59;2094771;28;46491;-58
2023/10/22 00:28:14;;;;;;;;;2.00;1.67;;;;;19.20;100.00;99590.19;2064482;28;46407;-58
2023/10/22 00:29:15;;;;;;;;;3.00;0.33;;;;;19.22;100.00;99597.16;2062582;28;46483;-56
2023/10/22 00:30:15;;;;;;;;;4.00;1.67;;;;;19.20;100.00;99590.19;2063388;28;46472;-59
2023/10/22 00:31:15;;;;;;;;;2.00;2.00;;;;;19.19;100.00;99594.69;2062155;28;46282;-59
2023/10/22 00:32:16;;;;;;;;;2.00;2.00;;;;;19.18;100.00;99592.94;2064549;28;46411;-57
2023/10/22 00:33:16;;;;;;;;;4.00;3.00;;;;;19.18;100.00;99597.47;2060750;28;46353;-59
2023/10/22 00:34:17;;;;;;;;;2.67;2.67;;;;;19.18;100.00;99598.34;2063060;28;46800;-56
2023/10/22 00:35:17;;;;;;;;;2.67;2.67;;;;;19.15;100.00;99595.88;2063555;28;46231;-57
2023/10/22 00:36:18;;;;;;;;;4.33;4.33;;;;;19.16;100.00;99604.81;2062766;28;46208;-58
2023/10/22 00:37:18;;;;;;;;;16.50;16.50;;;;;19.17;100.00;99598.44;2061268;28;46298;-61
2023/10/22 00:38:18;;;;;;;;;9.00;7.00;;;;;19.18;100.00;99606.41;2062586;28;46557;-59
2023/10/22 00:39:18;;;;;;;;;2.00;2.00;;;;;19.18;100.00;99606.41;2062846;28;46133;-59
2023/10/22 00:40:19;;;;;;;;;3.00;3.00;;;;;19.26;100.00;99612.06;2063456;28;46708;-59
2023/10/22 00:41:19;;;;;;;;;4.67;1.00;;;;;19.24;100.00;99610.47;2063148;28;46569;-57
2023/10/22 00:42:20;;;;;;;;;1.67;1.67;;;;;19.22;100.00;99599.84;2063042;28;47007;-60
2023/10/22 00:43:21;;;;;;;;;2.00;1.25;;;;;19.21;100.00;99610.72;2063036;28;47115;-60
2023/10/22 00:44:21;;;;;;;;;4.00;2.00;;;;;19.19;100.00;99613.53;2066054;28;46628;-60
2023/10/22 00:45:21;;;;;;;;;0.00;0.00;;;;;19.18;100.00;99606.41;2064848;28;46283;-59
2023/10/22 00:46:24;;;;;;;;;2.33;2.00;;;;;19.18;100.00;99608.22;2056363;28;46628;-59
2023/10/22 00:47:25;;;;;;;;;3.75;3.50;;;;;19.16;100.00;99613.72;2062659;28;46972;-57
2023/10/22 00:48:26;;;;;;;;;4.00;4.00;;;;;19.17;100.00;99606.53;2063490;28;46407;-58
2023/10/22 00:49:26;;;;;;;;;5.67;3.67;;;;;19.19;100.00;99612.66;2063011;28;46380;-58
2023/10/22 00:50:26;;;;;;;;;6.67;3.67;;;;;19.18;100.00;99606.41;2062769;28;45821;-59
2023/10/22 00:51:27;;;;;;;;;6.33;4.67;;;;;19.19;100.00;99612.66;2063826;28;45591;-60
2023/10/22 00:52:28;;;;;;;;;8.33;5.00;;;;;19.20;100.00;99614.38;2062948;28;47017;-60
2023/10/22 00:53:30;;;;;;;;;5.33;3.00;;;;;19.15;100.00;99612.03;2062443;28;46743;-60
2023/10/22 00:54:30;;;;;;;;;5.75;4.25;;;;;19.10;100.00;99611.50;2062604;28;46337;-60
2023/10/22 00:55:31;;;;;;;;;6.00;3.00;;;;;19.11;100.00;99611.41;2063806;28;46209;-60
2023/10/22 00:56:31;;;;;;;;;4.67;3.67;;;;;19.13;100.00;99624.72;2061389;28;46405;-58
2023/10/22 00:57:32;;;;;;;;;4.00;2.00;;;;;19.19;100.00;99626.13;2062501;28;46585;-57
2023/10/22 00:58:37;;;;;;;;;2.25;2.25;;;;;19.14;100.00;99620.19;2063262;28;46785;-60
2023/10/22 00:59:38;;;;;;;;;1.75;1.00;;;;;19.20;100.00;99619.75;2063229;28;46872;-61
2023/10/22 01:00:39;;;;;;;;;2.00;2.00;;;;;19.20;100.00;99625.13;2062733;28;46630;-59
2023/10/22 01:01:39;;;;;;;;;2.00;1.50;;;;;19.22;100.00;99623.19;2060296;28;47389;-57
2023/10/22 01:02:40;;;;;;;;;3.33;3.00;;;;;19.16;100.00;99621.81;2061511;28;46641;-58
2023/10/22 01:03:40;;;;;;;;;0.67;0.67;;;;;19.24;100.00;99627.47;2093141;28;46188;-56
2023/10/22 01:04:41;;;;;;;;;2.00;2.00;;;;;19.24;100.00;99614.03;2069454;28;46812;-58
2023/10/22 01:05:41;;;;;;;;;0.00;0.00;;;;;19.23;100.00;99635.66;2083896;28;46732;-60
2023/10/22 01:06:42;;;;;;;;;2.67;2.00;;;;;19.25;100.00;99629.19;2082956;28;46444;-61
2023/10/22 01:07:42;;;;;;;;;1.00;1.00;;;;;19.20;100.00;99625.13;2106066;28;46443;-60
2023/10/22 01:08:44;;;;;;;;;3.00;3.00;;;;;19.21;100.00;99625.03;2101763;28;46804;-55
2023/10/22 01:09:44;;;;;;;;;9.50;8.50;;;;;19.20;100.00;99626.00;2091377;28;46674;-58
2023/10/22 01:10:45;;;;;;;;;6.67;6.33;;;;;19.22;100.00;99628.56;2055196;28;46334;-60
2023/10/22 01:12:17;;;;;;;;;4.67;4.33;;;;;19.36;100.00;99633.78;2063757;28;46242;-56
2023/10/22 01:13:18;;;;;;;;;11.25;9.75;;;;;19.27;100.00;99632.63;2079562;28;45500;-58
2023/10/22 01:14:18;;;;;;;;;14.00;12.00;;;;;19.10;100.00;99641.94;2079614;28;47067;-58
2023/10/22 01:15:18;;;;;;;;;12.67;9.67;;;;;19.05;100.00;99633.34;2087533;28;46558;-57
2023/10/22 01:16:19;;;;;;;;;9.00;9.00;;;;;19.06;100.00;99645.84;2093781;28;46787;-58
2023/10/22 01:17:19;;;;;;;;;5.00;5.00;;;;;18.99;100.00;99644.56;2087595;28;46274;-59
2023/10/22 01:18:20;;;;;;;;;8.67;8.33;;;;;19.15;100.00;99643.44;2088291;28;46161;-59
2023/10/22 01:19:21;;;;;;;;;2.75;2.75;;;;;19.18;100.00;99643.19;2089387;28;46595;-59
2023/10/22 01:20:21;;;;;;;;;4.33;4.00;;;;;19.13;100.00;99640.00;2089821;28;46761;-59
2023/10/22 01:21:24;;;;;;;;;6.00;5.67;;;;;18.96;100.00;99649.31;2088052;28;46325;-59
2023/10/22 01:22:25;;;;;;;;;2.00;2.00;;;;;18.91;100.00;99646.94;2087508;28;46690;-56
2023/10/22 01:23:25;;;;;;;;;4.33;2.33;;;;;18.88;100.00;99646.31;2082760;28;46664;-58
2023/10/22 01:24:26;;;;;;;;;3.00;3.00;;;;;18.86;100.00;99654.50;2083211;28;46252;-60
2023/10/22 01:25:26;;;;;;;;;1.00;1.00;;;;;18.90;100.00;99652.44;2079546;28;46867;-60
2023/10/22 01:26:27;;;;;;;;;2.67;2.00;;;;;18.82;100.00;99658.41;2083268;28;46326;-60
2023/10/22 01:27:27;;;;;;;;;3.67;3.00;;;;;18.79;100.00;99656.75;2081473;28;46274;-56
2023/10/22 01:28:28;;;;;;;;;4.67;3.00;;;;;18.81;100.00;99662.06;2081256;28;46307;-59
2023/10/22 01:29:28;;;;;;;;;2.67;1.00;;;;;18.81;100.00;99656.69;2083528;28;46910;-57
2023/10/22 01:30:29;;;;;;;;;1.67;1.00;;;;;18.79;100.00;99650.53;2079618;28;45313;-58
2023/10/22 01:31:29;;;;;;;;;2.00;2.00;;;;;18.79;100.00;99664.81;2087869;28;46356;-57
2023/10/22 01:32:30;;;;;;;;;3.67;3.67;;;;;18.80;100.00;99663.00;2086757;28;45542;-59
2023/10/22 01:33:30;;;;;;;;;1.75;1.75;;;;;18.79;100.00;99655.91;2079642;28;46467;-60
2023/10/22 01:34:31;;;;;;;;;2.67;2.67;;;;;18.76;100.00;99670.44;2085815;28;46108;-59
2023/10/22 01:35:32;;;;;;;;;2.00;0.67;;;;;18.75;100.00;99663.34;2082182;28;46685;-60
2023/10/22 01:36:32;;;;;;;;;1.67;1.67;;;;;18.74;100.00;99660.78;2088282;28;46748;-59
2023/10/22 01:37:34;;;;;;;;;5.33;2.67;;;;;18.75;100.00;99654.41;2087215;28;46291;-58
2023/10/22 01:38:35;;;;;;;;;1.00;0.25;;;;;18.75;100.00;99657.97;2079480;28;46459;-60
2023/10/22 01:39:35;;;;;;;;;1.00;1.00;;;;;18.78;100.00;99659.56;2066144;28;46987;-58
2023/10/22 01:40:35;;;;;;;;;2.33;0.00;;;;;18.99;100.00;99663.41;2066160;28;46714;-56
2023/10/22 01:41:36;;;;;;;;;2.67;2.67;;;;;19.06;100.00;99651.22;2071220;28;46657;-60
2023/10/22 01:42:36;;;;;;;;;2.00;1.00;;;;;19.06;100.00;99661.97;2072194;28;46676;-58
2023/10/22 01:43:36;;;;;;;;;1.67;1.67;;;;;19.01;100.00;99663.28;2063762;28;46838;-55
2023/10/22 01:44:37;;;;;;;;;2.00;2.00;;;;;18.96;100.00;99663.63;2067876;28;46402;-59
2023/10/22 01:45:37;;;;;;;;;2.00;2.00;;;;;18.98;100.00;99667.06;2078721;28;46128;-60
2023/10/22 01:46:37;;;;;;;;;1.33;1.33;;;;;19.00;100.00;99666.94;2071526;28;46858;-57
2023/10/22 01:47:38;;;;;;;;;1.00;1.00;;;;;19.17;100.00;99668.38;2075578;28;47124;-59
2023/10/22 01:48:38;;;;;;;;;2.67;1.00;;;;;19.35;100.00;99673.28;2071786;28;46206;-61
2023/10/22 01:49:39;;;;;;;;;1.00;1.00;;;;;19.39;100.00;99668.50;2077779;28;46579;-60
2023/10/22 01:50:39;;;;;;;;;2.00;1.00;;;;;19.23;100.00;99670.63;2085482;28;46273;-58
2023/10/22 01:51:39;;;;;;;;;2.33;1.67;;;;;19.22;100.00;99664.41;2096076;28;45947;-59
2023/10/22 01:52:39;;;;;;;;;1.00;1.00;;;;;19.28;100.00;99671.13;2091816;28;47027;-59
2023/10/22 01:53:42;;;;;;;;;3.00;1.00;;;;;19.35;100.00;99675.09;2087297;28;46310;-56
2023/10/22 01:54:42;;;;;;;;;1.00;1.00;;;;;19.34;100.00;99663.47;2077605;28;46873;-55
2023/10/22 01:55:42;;;;;;;;;2.67;1.00;;;;;19.23;100.00;99666.09;2088584;28;46716;-58
2023/10/22 01:56:44;;;;;;;;;1.33;1.00;;;;;19.23;100.00;99673.31;2090317;28;46442;-60
2023/10/22 01:57:44;;;;;;;;;1.50;1.25;;;;;19.15;100.00;99676.56;2091586;28;46342;-57
2023/10/22 01:58:45;;;;;;;;;0.33;0.00;;;;;19.04;100.00;99668.41;2093257;28;46257;-59
2023/10/22 01:59:45;;;;;;;;;1.00;1.00;;;;;19.04;100.00;99671.97;2096181;28;46278;-59
2023/10/22 02:00:45;;;;;;;;;2.33;1.33;;;;;18.96;100.00;99674.38;2100243;28;46503;-59
2023/10/22 02:01:46;;;;;;;;;2.33;2.00;;;;;18.92;100.00;99686.31;2087560;28;46394;-59
2023/10/22 02:02:46;;;;;;;;;1.00;1.00;;;;;18.97;100.00;99683.31;2092921;28;46911;-58
2023/10/22 02:03:47;;;;;;;;;4.67;1.67;;;;;18.86;100.00;99672.47;2096175;28;46642;-58
2023/10/22 02:04:47;;;;;;;;;1.67;1.67;;;;;18.82;100.00;99685.28;2089503;28;46682;-57
2023/10/22 02:05:47;;;;;;;;;1.00;1.00;;;;;18.89;100.00;99681.16;2086534;28;46591;-57
2023/10/22 02:06:48;;;;;;;;;2.33;1.00;;;;;18.85;100.00;99692.25;2088381;28;46264;-59
2023/10/22 02:07:48;;;;;;;;;1.00;1.00;;;;;19.05;100.00;99683.59;2098355;28;46439;-58
2023/10/22 02:08:48;;;;;;;;;1.00;1.00;;;;;19.13;100.00;99680.34;2096635;28;46306;-58
2023/10/22 02:09:49;;;;;;;;;3.00;2.33;;;;;19.18;100.00;99687.09;2094736;28;45442;-57
2023/10/22 02:10:49;;;;;;;;;0.67;0.67;;;;;19.23;100.00;99689.47;2087080;28;46394;-58
2023/10/22 02:11:50;;;;;;;;;0.67;0.67;;;;;19.27;100.00;99680.19;2056043;28;45700;-59
2023/10/22 02:12:50;;;;;;;;;0.50;0.50;;;;;19.22;100.00;99688.59;2057060;28;46311;-60
2023/10/22 02:13:51;;;;;;;;;1.00;1.00;;;;;19.22;100.00;99693.97;2060353;28;46288;-57
2023/10/22 02:14:51;;;;;;;;;3.00;2.00;;;;;19.20;100.00;99693.25;2063427;28;46035;-59
2023/10/22 02:15:51;;;;;;;;;1.00;0.67;;;;;19.24;100.00;99688.47;2062201;28;46229;-59
2023/10/22 02:16:52;;;;;;;;;1.00;1.00;;;;;19.22;100.00;99693.13;2061539;28;46680;-59
2023/10/22 02:17:52;;;;;;;;;3.67;1.00;;;;;19.23;100.00;99693.00;2055183;28;46248;-58
2023/10/22 02:18:53;;;;;;;;;1.00;1.00;;;;;18.98;100.00;99698.47;2085891;28;47399;-56
2023/10/22 02:19:54;;;;;;;;;3.00;1.00;;;;;18.92;100.00;99699.75;2087237;28;46618;-57
2023/10/22 02:20:57;;;;;;;;;1.00;1.00;;;;;18.90;100.00;99701.69;2061962;28;46299;-56
2023/10/22 02:21:57;;;;;;;;;2.00;1.00;;;;;18.88;100.00;99702.78;2059145;28;46640;-58
2023/10/22 02:22:59;;;;;;;;;2.00;2.00;;;;;18.80;100.00;99693.47;2054760;28;46540;-59
2023/10/22 02:23:59;;;;;;;;;2.00;1.00;;;;;18.83;100.00;99704.94;2061727;28;46131;-56
2023/10/22 02:24:59;;;;;;;;;6.00;1.67;;;;;18.80;100.00;99704.22;2062190;28;46520;-59
2023/10/22 02:26:00;;;;;;;;;2.00;0.00;;;;;18.79;100.00;99707.84;2063009;28;46220;-57
2023/10/22 02:27:00;;;;;;;;;0.33;0.00;;;;;18.80;100.00;99703.31;2062537;28;46653;-58
2023/10/22 02:28:01;;;;;;;;;4.00;2.33;;;;;18.79;100.00;99709.66;2062500;28;46525;-58
2023/10/22 02:29:01;;;;;;;;;0.33;0.00;;;;;18.76;100.00;99713.44;2055556;28;46902;-59
2023/10/22 02:30:02;;;;;;;;;3.00;1.00;;;;;18.74;100.00;99718.06;2056598;28;46236;-58
2023/10/22 02:31:04;;;;;;;;;2.25;1.00;;;;;18.75;100.00;99714.41;2066935;28;46376;-58
2023/10/22 02:32:05;;;;;;;;;6.00;2.25;;;;;18.74;100.00;99715.38;2063479;28;46886;-58
2023/10/22 02:33:05;;;;;;;;;3.33;2.00;;;;;18.75;100.00;99714.41;2062173;28;46695;-59
2023/10/22 02:34:07;;;;;;;;;1.67;1.00;;;;;18.76;100.00;99716.13;2062951;28;46859;-57
2023/10/22 02:35:07;;;;;;;;;3.25;0.50;;;;;18.77;100.00;99722.34;2062198;28;46395;-58
2023/10/22 02:36:08;;;;;;;;;3.00;2.00;;;;;18.78;100.00;99722.25;2062395;28;46230;-58
2023/10/22 02:37:08;;;;;;;;;4.33;0.33;;;;;18.80;100.00;99724.81;2062269;28;46656;-59
2023/10/22 02:38:14;;;;;;;;;0.00;0.00;;;;;18.73;100.00;99724.41;2062517;28;46654;-59
2023/10/22 02:39:15;;;;;;;;;0.00;0.00;;;;;18.76;100.00;99721.50;2062440;28;46232;-59
2023/10/22 02:40:15;;;;;;;;;2.00;2.00;;;;;18.81;100.00;99723.88;2061789;28;46558;-57
2023/10/22 02:41:15;;;;;;;;;2.00;0.33;;;;;18.78;100.00;99726.75;2061908;28;46433;-59
2023/10/22 02:42:16;;;;;;;;;1.00;1.00;;;;;18.75;100.00;99719.78;2062989;28;46168;-56
2023/10/22 02:43:16;;;;;;;;;6.00;2.33;;;;;18.67;100.00;99722.16;2061597;28;45691;-59
2023/10/22 02:44:17;;;;;;;;;1.33;1.33;;;;;18.69;100.00;99716.69;2062643;28;46178;-59
2023/10/22 02:45:17;;;;;;;;;2.00;1.00;;;;;18.69;100.00;99725.63;2094950;28;46299;-57
2023/10/22 02:46:17;;;;;;;;;1.67;1.33;;;;;18.70;100.00;99721.09;2091837;28;46569;-55
2023/10/22 02:47:18;;;;;;;;;1.00;1.00;;;;;18.70;100.00;99721.94;2055891;28;46309;-56
2023/10/22 02:48:18;;;;;;;;;1.00;1.00;;;;;18.72;100.00;99720.00;2054651;28;46889;-57
2023/10/22 02:49:19;;;;;;;;;1.00;0.00;;;;;18.73;100.00;99729.78;2058770;28;46414;-59
2023/10/22 02:50:19;;;;;;;;;0.67;0.67;;;;;18.74;100.00;99726.13;2062244;28;46441;-58
2023/10/22 02:51:20;;;;;;;;;2.00;2.00;;;;;18.73;100.00;99729.78;2054735;28;46319;-59
2023/10/22 02:52:20;;;;;;;;;1.00;1.00;;;;;18.74;100.00;99736.03;2055851;28;46287;-59
2023/10/22 02:53:20;;;;;;;;;3.33;0.00;;;;;18.74;100.00;99733.34;2062067;28;46610;-58
2023/10/22 02:54:21;;;;;;;;;1.33;1.00;;;;;18.72;100.00;99733.44;2062191;28;46310;-56
2023/10/22 02:55:22;;;;;;;;;1.00;0.75;;;;;18.72;100.00;99736.13;2061678;28;46767;-57
2023/10/22 02:56:23;;;;;;;;;3.00;1.00;;;;;18.71;100.00;99744.31;2055077;28;46356;-58
2023/10/22 02:57:23;;;;;;;;;1.67;1.00;;;;;18.72;100.00;99740.66;2056839;28;46167;-59
2023/10/22 02:58:24;;;;;;;;;1.33;1.33;;;;;18.69;100.00;99746.25;2062281;28;46870;-59
2023/10/22 02:59:24;;;;;;;;;1.00;1.00;;;;;18.70;100.00;99737.22;2061884;28;46151;-57
2023/10/22 03:00:24;;;;;;;;;0.67;0.00;;;;;18.70;100.00;99738.06;2062052;28;46623;-57
2023/10/22 03:01:25;;;;;;;;;1.00;1.00;;;;;18.69;100.00;99748.94;2070783;28;46151;-58
2023/10/22 03:02:25;;;;;;;;;1.00;1.00;;;;;18.68;100.00;99745.41;2078491;28;46447;-58
2023/10/22 03:03:25;;;;;;;;;2.67;1.00;;;;;18.64;100.00;99743.00;2062603;28;45546;-59
2023/10/22 03:04:26;;;;;;;;;1.00;1.00;;;;;18.66;100.00;99747.31;2055023;28;47111;-58
2023/10/22 03:05:26;;;;;;;;;2.67;1.33;;;;;18.67;100.00;99745.47;2063042;28;46740;-59
2023/10/22 03:06:26;;;;;;;;;2.00;1.67;;;;;18.66;100.00;99746.44;2066330;28;46126;-58
2023/10/22 03:07:27;;;;;;;;;0.00;0.00;;;;;18.67;100.00;99743.66;2056527;28;46205;-59
2023/10/22 03:08:28;;;;;;;;;2.00;1.00;;;;;18.68;100.00;99757.97;2069006;28;46361;-58
2023/10/22 03:09:28;;;;;;;;;1.67;1.67;;;;;18.68;100.00;99753.47;2103774;27;46610;-60
2023/10/22 03:10:28;;;;;;;;;2.00;0.00;;;;;18.67;100.00;99742.78;2112225;27;46299;-59
2023/10/22 03:11:29;;;;;;;;;2.00;0.67;;;;;18.69;100.00;99755.19;2110737;27;46051;-57
2023/10/22 03:12:29;;;;;;;;;2.00;1.67;;;;;18.75;100.00;99753.88;2104290;28;46504;-56
2023/10/22 03:13:29;;;;;;;;;2.33;1.33;;;;;18.69;100.00;99757.88;2096807;28;46262;-58
2023/10/22 03:14:29;;;;;;;;;4.00;2.33;;;;;18.68;100.00;99757.97;2097054;27;46665;-60
2023/10/22 03:15:30;;;;;;;;;1.00;1.00;;;;;18.67;100.00;99758.91;2103396;28;46708;-58
2023/10/22 03:16:31;;;;;;;;;1.67;0.00;;;;;18.67;100.00;99759.78;2105538;27;46278;-58
2023/10/22 03:17:31;;;;;;;;;1.00;1.00;;;;;18.67;100.00;99756.22;2104253;28;46500;-56
2023/10/22 03:18:31;;;;;;;;;0.00;0.00;;;;;18.64;100.00;99765.38;2096072;28;46744;-56
2023/10/22 03:19:32;;;;;;;;;1.00;1.00;;;;;18.65;100.00;99764.41;2097514;28;46508;-61
2023/10/22 03:20:33;;;;;;;;;1.33;0.00;;;;;18.65;100.00;99766.22;2104779;27;46600;-57
2023/10/22 03:21:35;;;;;;;;;0.75;0.00;;;;;18.64;100.00;99769.88;2099886;28;46455;-58
2023/10/22 03:22:36;;;;;;;;;3.25;3.25;;;;;18.67;100.00;99773.22;2103396;27;46286;-57
2023/10/22 03:23:41;;;;;;;;;2.67;1.00;;;;;18.54;100.00;99767.78;2112033;27;46375;-60
2023/10/22 03:24:41;;;;;;;;;1.00;1.00;;;;;18.57;100.00;99769.44;2107306;27;46522;-60
2023/10/22 03:25:43;;;;;;;;;3.67;1.67;;;;;18.61;100.00;99773.63;2103928;28;46288;-59
2023/10/22 03:26:43;;;;;;;;;1.25;1.25;;;;;18.62;100.00;99766.41;2103612;28;46274;-60
2023/10/22 03:27:44;;;;;;;;;4.67;1.00;;;;;18.63;100.00;99770.81;2104228;28;46783;-57
2023/10/22 03:28:46;;;;;;;;;1.33;0.00;;;;;18.63;100.00;99760.94;2104626;28;46338;-58
2023/10/22 03:29:46;;;;;;;;;2.00;0.75;;;;;18.58;100.00;99764.91;2110194;27;47021;-59
2023/10/22 03:30:46;;;;;;;;;2.67;2.67;;;;;18.58;100.00;99765.78;2110771;27;46061;-60
2023/10/22 03:31:47;;;;;;;;;2.00;2.00;;;;;18.53;100.00;99773.28;2108543;27;45744;-58
2023/10/22 03:32:47;;;;;;;;;4.67;1.00;;;;;18.61;100.00;99768.25;2112190;27;46325;-59
2023/10/22 03:33:47;;;;;;;;;0.00;0.00;;;;;18.58;100.00;99771.16;2112370;27;46570;-59
2023/10/22 03:34:48;;;;;;;;;0.67;0.00;;;;;18.54;100.00;99766.94;2103828;28;46853;-56
2023/10/22 03:35:48;;;;;;;;;1.67;1.00;;;;;18.53;100.00;99768.75;2106754;27;46921;-58
2023/10/22 03:36:48;;;;;;;;;2.00;1.00;;;;;18.52;100.00;99777.78;2115611;27;46823;-59
2023/10/22 03:37:49;;;;;;;;;1.67;0.33;;;;;18.53;100.00;99774.13;2106752;27;46578;-57
2023/10/22 03:38:49;;;;;;;;;0.00;0.00;;;;;18.52;100.00;99780.47;2104488;27;46440;-57
2023/10/22 03:39:49;;;;;;;;;1.00;0.00;;;;;18.52;100.00;99783.16;2104163;27;46310;-58
2023/10/22 03:40:59;;;;;;;;;3.00;1.00;;;;;18.51;100.00;99778.75;2100688;27;46755;-58
2023/10/22 03:42:00;;;;;;;;;0.25;0.25;;;;;18.52;100.00;99775.09;2061769;28;47073;-57
2023/10/22 03:43:00;;;;;;;;;1.67;0.00;;;;;18.47;100.00;99777.28;2055854;28;46362;-56
2023/10/22 03:44:00;;;;;;;;;1.00;1.00;;;;;18.55;100.00;99779.44;2065389;28;46669;-59
2023/10/22 03:45:02;;;;;;;;;0.00;0.00;;;;;18.60;100.00;99788.03;2061395;28;46226;-56
2023/10/22 03:46:02;;;;;;;;;0.00;0.00;;;;;18.54;100.00;99783.91;2054056;28;46461;-58
2023/10/22 03:47:03;;;;;;;;;1.67;0.67;;;;;18.54;100.00;99794.66;2061408;28;47002;-59
2023/10/22 03:48:04;;;;;;;;;0.67;0.33;;;;;18.53;100.00;99792.94;2062550;28;46474;-61
2023/10/22 03:49:04;;;;;;;;;1.00;1.00;;;;;18.52;100.00;99796.59;2062413;28;46874;-57
2023/10/22 03:50:05;;;;;;;;;0.00;0.00;;;;;18.50;100.00;99793.16;2062279;28;46198;-58
2023/10/22 03:51:05;;;;;;;;;1.75;1.00;;;;;18.49;100.00;99790.59;2108182;27;46549;-57
2023/10/22 03:52:06;;;;;;;;;1.33;0.00;;;;;18.50;100.00;99798.53;2108690;27;46396;-57
2023/10/22 03:53:06;;;;;;;;;1.67;0.67;;;;;18.62;100.00;99807.59;2055129;28;46371;-58
2023/10/22 03:54:06;;;;;;;;;2.33;1.33;;;;;18.64;100.00;99803.00;2062873;28;46820;-59
2023/10/22 03:55:07;;;;;;;;;2.00;1.00;;;;;18.66;100.00;99810.94;2062106;28;46905;-57
2023/10/22 03:56:07;;;;;;;;;3.00;0.33;;;;;18.68;100.00;99800.97;2062468;28;46863;-59
2023/10/22 03:57:07;;;;;;;;;0.00;0.00;;;;;18.68;100.00;99806.34;2063710;28;46248;-58
2023/10/22 03:58:08;;;;;;;;;1.00;1.00;;;;;18.66;100.00;99802.88;2063765;28;46216;-56
2023/10/22 03:59:08;;;;;;;;;2.00;0.00;;;;;18.65;100.00;99809.22;2063116;28;46303;-59
2023/10/22 04:00:10;;;;;;;;;1.00;0.00;;;;;18.64;100.00;99811.06;2063348;28;46708;-58
2023/10/22 04:01:10;;;;;;;;;1.25;0.00;;;;;18.65;100.00;99809.22;2063564;28;46372;-58
2023/10/22 04:02:11;;;;;;;;;1.00;1.00;;;;;18.65;100.00;99814.59;2063125;28;46481;-56
2023/10/22 04:03:11;;;;;;;;;1.00;0.00;;;;;18.62;100.00;99818.34;2066930;28;46590;-57
2023/10/22 04:04:12;;;;;;;;;0.00;0.00;;;;;18.60;100.00;99816.72;2071781;28;46402;-58
2023/10/22 04:05:12;;;;;;;;;1.00;1.00;;;;;18.50;100.00;99820.03;2072653;28;46202;-59
2023/10/22 04:06:12;;;;;;;;;1.00;1.00;;;;;18.53;100.00;99822.50;2062901;28;46433;-59
2023/10/22 04:07:13;;;;;;;;;1.00;1.00;;;;;18.47;100.00;99814.88;2071753;28;46946;-59
2023/10/22 04:08:13;;;;;;;;;0.00;0.00;;;;;18.43;100.00;99826.81;2071229;28;46237;-57
2023/10/22 04:09:13;;;;;;;;;1.33;1.00;;;;;18.53;100.00;99832.38;2071442;28;46377;-59
2023/10/22 04:10:15;;;;;;;;;1.00;0.00;;;;;18.51;100.00;99820.91;2075371;28;46114;-58
2023/10/22 04:11:19;;;;;;;;;0.00;0.00;;;;;18.48;100.00;99827.34;2073742;28;46839;-56
2023/10/22 04:12:19;;;;;;;;;1.50;1.50;;;;;18.49;100.00;99833.56;2088437;28;46359;-59
2023/10/22 04:13:20;;;;;;;;;1.67;1.00;;;;;18.50;100.00;99835.28;2065713;28;46846;-60
2023/10/22 04:14:21;;;;;;;;;0.00;0.00;;;;;18.50;100.00;99830.78;2063649;28;46650;-58
2023/10/22 04:15:21;;;;;;;;;0.75;0.75;;;;;18.52;100.00;99834.22;2096281;28;46664;-58
2023/10/22 04:16:22;;;;;;;;;0.00;0.00;;;;;18.47;100.00;99833.69;2072801;28;46182;-59
2023/10/22 04:17:22;;;;;;;;;1.00;1.00;;;;;18.50;100.00;99836.16;2077963;28;46233;-60
2023/10/22 04:18:23;;;;;;;;;2.33;0.67;;;;;18.51;100.00;99842.38;2084547;28;46495;-59
2023/10/22 04:19:23;;;;;;;;;3.00;1.33;;;;;18.54;100.00;99842.16;2098053;28;46427;-60
2023/10/22 04:20:23;;;;;;;;;2.33;0.67;;;;;18.56;100.00;99839.41;2096817;28;46818;-58
2023/10/22 04:21:24;;;;;;;;;1.33;1.33;;;;;18.55;100.00;99843.91;2095221;28;46657;-59
2023/10/22 04:22:24;;;;;;;;;0.33;0.33;;;;;18.56;100.00;99853.69;2090905;28;46182;-60
2023/10/22 04:23:24;;;;;;;;;0.67;0.00;;;;;18.47;100.00;99840.88;2091373;28;46170;-60
2023/10/22 04:24:25;;;;;;;;;0.00;0.00;;;;;18.46;100.00;99847.22;2096636;28;46523;-54
2023/10/22 04:25:27;;;;;;;;;0.67;0.67;;;;;18.47;100.00;99846.25;2096339;28;46477;-59
2023/10/22 04:26:27;;;;;;;;;1.25;1.00;;;;;18.45;100.00;99849.06;2096496;28;46755;-60
2023/10/22 04:27:30;;;;;;;;;1.00;1.00;;;;;18.45;100.00;99845.50;2096732;28;46975;-60
2023/10/22 04:28:31;;;;;;;;;2.00;2.00;;;;;18.44;100.00;99843.78;2092009;28;46882;-60
2023/10/22 04:29:32;;;;;;;;;3.67;1.00;;;;;18.43;100.00;99860.88;2091754;28;46681;-60
2023/10/22 04:30:38;;;;;;;;;1.00;0.00;;;;;18.41;100.00;99855.59;2095831;28;46475;-59
2023/10/22 04:31:38;;;;;;;;;1.25;1.25;;;;;18.40;100.00;99856.53;2071791;28;46520;-59
2023/10/22 04:32:38;;;;;;;;;3.00;0.00;;;;;18.38;100.00;99861.16;2072700;28;46934;-56
2023/10/22 04:33:39;;;;;;;;;0.00;0.00;;;;;18.38;100.00;99861.16;2096783;28;46332;-58
2023/10/22 04:34:40;;;;;;;;;1.33;1.00;;;;;18.38;100.00;99871.06;2096197;28;46815;-57
2023/10/22 04:35:40;;;;;;;;;0.33;0.33;;;;;18.38;100.00;99868.38;2096806;28;46542;-58
2023/10/22 04:36:40;;;;;;;;;0.00;0.00;;;;;18.38;100.00;99871.06;2096180;28;46606;-59
2023/10/22 04:37:41;;;;;;;;;0.00;0.00;;;;;18.37;100.00;99875.56;2091338;28;46644;-58
2023/10/22 04:38:41;;;;;;;;;0.33;0.00;;;;;18.36;100.00;99870.31;2087760;28;46277;-56
2023/10/22 04:39:42;;;;;;;;;1.00;1.00;;;;;18.37;100.00;99877.38;2096164;28;46094;-60
2023/10/22 04:40:42;;;;;;;;;0.00;0.00;;;;;18.40;100.00;99872.66;2088309;28;46449;-59
2023/10/22 04:41:43;;;;;;;;;0.00;0.00;;;;;18.42;100.00;99875.25;2087600;28;46189;-59
2023/10/22 04:42:43;;;;;;;;;1.00;0.00;;;;;18.40;100.00;99878.03;2081782;28;45611;-59